Time;durP1;ratioP1;P1;durP2;ratioP2;P2;SDS_P1;SDS_P2;PMS_P1;PMS_P2;Temp;Humidity;BMP_temperature;BMP_pressure;BME280_temperature;BME280_humidity;BME280_pressure;Samples;Min_cycle;Max_cycle;Signal;HPM_P1;HPM_P2
2022/08/03 00:00:07;;;;;;;6.85;2.47;;;;;;;16.65;100.00;101381.06;1035831;28;20050;-79
2022/08/03 00:00:45;;;;;;;4.65;2.67;;;;;;;16.65;100.00;101381.88;1036043;28;20049;-79
2022/08/03 00:01:17;;;;;;;3.25;2.33;;;;;;;16.71;100.00;101385.50;1033418;28;20098;-79
2022/08/03 00:01:49;;;;;;;6.72;3.50;;;;;;;16.74;100.00;101382.34;1032070;28;20403;-79
2022/08/03 00:02:20;;;;;;;3.47;2.50;;;;;;;16.76;100.00;101380.22;1027950;28;20039;-79
2022/08/03 00:02:52;;;;;;;3.92;2.53;;;;;;;16.68;100.00;101380.59;1028702;28;20125;-79
2022/08/03 00:03:24;;;;;;;6.15;2.97;;;;;;;16.66;100.00;101380.03;1031732;28;20498;-79
2022/08/03 00:03:56;;;;;;;4.97;2.50;;;;;;;16.59;100.00;101382.03;1026097;28;20557;-79
2022/08/03 00:04:27;;;;;;;4.15;2.63;;;;;;;16.61;100.00;101380.72;1020271;29;20151;-79
2022/08/03 00:05:07;;;;;;;6.38;2.65;;;;;;;16.63;100.00;101383.16;1023961;28;20047;-79
2022/08/03 00:05:38;;;;;;;3.17;2.88;;;;;;;16.64;100.00;101382.09;1027195;28;20075;-79
2022/08/03 00:06:30;;;;;;;3.22;2.20;;;;;;;16.67;100.00;101389.72;1025695;28;20539;-79
2022/08/03 00:07:07;;;;;;;2.78;2.53;;;;;;;16.65;100.00;101381.06;1020250;29;20051;-79
2022/08/03 00:07:39;;;;;;;2.35;1.98;;;;;;;16.58;100.00;101386.59;1019932;29;20524;-79
2022/08/03 00:08:11;;;;;;;3.92;2.30;;;;;;;16.65;100.00;101381.06;1021180;29;20051;-79
2022/08/03 00:08:43;;;;;;;4.05;2.65;;;;;;;16.69;100.00;101387.59;1021004;29;20054;-79
2022/08/03 00:09:14;;;;;;;3.70;2.42;;;;;;;16.65;100.00;101387.25;1024473;28;20051;-79
2022/08/03 00:09:46;;;;;;;4.10;2.63;;;;;;;16.58;100.00;101383.91;1027947;28;20058;-79
2022/08/03 00:10:17;;;;;;;9.32;3.90;;;;;;;16.60;100.00;101379.09;1028245;28;20050;-79
2022/08/03 00:10:49;;;;;;;3.88;2.85;;;;;;;16.53;100.00;101377.63;1028441;28;20062;-79
2022/08/03 00:11:21;;;;;;;6.75;2.22;;;;;;;16.54;100.00;101382.75;1028361;28;20043;-79
2022/08/03 00:11:52;;;;;;;5.13;2.10;;;;;;;16.54;100.00;101388.13;1032061;28;20102;-79
2022/08/03 00:12:24;;;;;;;5.50;2.97;;;;;;;16.56;100.00;101383.34;1028194;28;20043;-79
2022/08/03 00:12:55;;;;;;;2.47;2.30;;;;;;;16.54;100.00;101385.44;1027942;28;20565;-79
2022/08/03 00:13:27;;;;;;;5.25;2.80;;;;;;;16.58;100.00;101383.91;1032262;28;20042;-79
2022/08/03 00:13:59;;;;;;;5.43;3.00;;;;;;;16.60;100.00;101389.03;1028528;28;20042;-79
2022/08/03 00:14:31;;;;;;;5.30;2.97;;;;;;;16.51;100.00;101383.25;1028128;28;20035;-79
2022/08/03 00:15:03;;;;;;;3.10;2.67;;;;;;;16.49;100.00;101381.88;1032303;28;20044;-79
2022/08/03 00:15:41;;;;;;;5.72;2.47;;;;;;;16.53;100.00;101383.81;1025656;28;20043;-79
2022/08/03 00:16:13;;;;;;;3.55;2.60;;;;;;;16.48;100.00;101385.59;1025651;28;20472;-79
2022/08/03 00:16:45;;;;;;;3.35;2.78;;;;;;;16.43;100.00;101380.13;1027776;28;20518;-79
2022/08/03 00:17:16;;;;;;;4.82;3.00;;;;;;;16.46;100.00;101382.34;1029989;28;20045;-79
2022/08/03 00:17:48;;;;;;;4.03;2.28;;;;;;;16.46;100.00;101387.72;1036290;28;20089;-79
2022/08/03 00:18:24;;;;;;;2.33;2.22;;;;;;;16.42;100.00;101381.16;1031772;28;20038;-79
2022/08/03 00:18:56;;;;;;;4.15;2.25;;;;;;;16.42;100.00;101382.00;1032940;28;20094;-79
2022/08/03 00:19:27;;;;;;;2.90;2.08;;;;;;;16.46;100.00;101380.47;1036186;28;20050;-79
2022/08/03 00:19:59;;;;;;;3.22;2.05;;;;;;;16.48;100.00;101382.91;1030817;28;20540;-79
2022/08/03 00:20:31;;;;;;;2.95;2.35;;;;;;;16.42;100.00;101381.16;1032030;28;20104;-79
2022/08/03 00:21:03;;;;;;;6.50;2.78;;;;;;;16.41;100.00;101380.34;1031869;28;20061;-79
2022/08/03 00:21:34;;;;;;;2.47;2.28;;;;;;;16.34;100.00;101380.50;1032699;28;20038;-79
2022/08/03 00:22:06;;;;;;;4.68;2.55;;;;;;;16.29;100.00;101379.63;1032444;28;20053;-79
2022/08/03 00:22:38;;;;;;;3.08;2.60;;;;;;;16.17;100.00;101378.84;1031593;28;20469;-79
2022/08/03 00:23:10;;;;;;;7.78;3.20;;;;;;;16.12;100.00;101376.88;1029149;28;20053;-79
2022/08/03 00:23:41;;;;;;;2.88;2.65;;;;;;;16.10;100.00;101376.28;1025514;28;20050;-79
2022/08/03 00:24:23;;;;;;;7.30;2.63;;;;;;;16.11;100.00;101380.59;1029789;28;20042;-80
2022/08/03 00:24:54;;;;;;;5.75;2.03;;;;;;;16.11;100.00;101375.22;1027896;28;20047;-80
2022/08/03 00:25:26;;;;;;;3.88;2.13;;;;;;;16.11;100.00;101377.91;1029625;28;20166;-80
2022/08/03 00:25:58;;;;;;;6.38;2.63;;;;;;;16.08;100.00;101378.41;1035852;28;20386;-80
2022/08/03 00:26:30;;;;;;;2.90;2.40;;;;;;;16.05;100.00;101371.63;1036441;28;20053;-80
2022/08/03 00:27:02;;;;;;;3.90;2.95;;;;;;;16.09;100.00;101377.34;1034242;28;20042;-79
2022/08/03 00:27:34;;;;;;;2.75;2.40;;;;;;;16.16;100.00;101371.81;1028833;28;20103;-80
2022/08/03 00:28:08;;;;;;;5.07;2.50;;;;;;;16.20;100.00;101370.31;1028374;28;20043;-80
2022/08/03 00:28:40;;;;;;;2.58;2.38;;;;;;;16.28;100.00;101380.66;1029405;28;20054;-80
2022/08/03 00:29:12;;;;;;;3.70;2.35;;;;;;;16.21;100.00;101369.25;1030357;28;20061;-80
2022/08/03 00:29:43;;;;;;;9.63;2.75;;;;;;;16.21;100.00;101374.63;1035432;28;20505;-80
2022/08/03 00:30:31;;;;;;;3.47;2.17;;;;;;;16.16;100.00;101369.13;1038049;28;20298;-80
2022/08/03 00:31:03;;;;;;;4.65;2.42;;;;;;;16.17;100.00;101373.47;1036977;28;20117;-80
2022/08/03 00:31:34;;;;;;;3.47;2.38;;;;;;;16.22;100.00;101371.69;1029389;28;20046;-80
2022/08/03 00:32:23;;;;;;;2.60;2.40;;;;;;;16.16;100.00;101372.66;1027803;28;20050;-81
2022/08/03 00:32:55;;;;;;;3.95;2.70;;;;;;;16.15;100.00;101371.00;1030799;28;20042;-80
2022/08/03 00:33:27;;;;;;;3.13;2.38;;;;;;;16.13;100.00;101378.50;1033294;28;20449;-80
2022/08/03 00:34:19;;;;;;;3.08;2.40;;;;;;;16.14;100.00;101373.94;1027712;28;20051;-80
2022/08/03 00:35:07;;;;;;;3.38;2.60;;;;;;;16.03;100.00;101376.44;1023839;29;20349;-81
2022/08/03 00:35:42;;;;;;;2.97;2.70;;;;;;;15.97;100.00;101376.59;1021504;29;20046;-80
2022/08/03 00:36:22;;;;;;;2.50;2.30;;;;;;;16.04;100.00;101378.06;1028669;28;20106;-80
2022/08/03 00:36:53;;;;;;;3.50;2.22;;;;;;;16.07;100.00;101368.72;1026165;28;20047;-80
2022/08/03 00:37:26;;;;;;;2.85;2.65;;;;;;;16.08;100.00;101370.34;1029655;28;20110;-80
2022/08/03 00:38:12;;;;;;;6.38;2.42;;;;;;;16.04;100.00;101372.69;1035512;28;20428;-80
2022/08/03 00:38:43;;;;;;;3.53;1.92;;;;;;;16.06;100.00;101367.06;1033253;28;20140;-80
2022/08/03 00:39:15;;;;;;;4.05;2.55;;;;;;;16.12;100.00;101368.81;1033085;28;20042;-80
2022/08/03 00:39:46;;;;;;;2.88;2.65;;;;;;;16.08;100.00;101367.66;1027567;28;20063;-80
2022/08/03 00:40:19;;;;;;;4.88;2.40;;;;;;;16.08;100.00;101375.72;1028563;28;20050;-80
2022/08/03 00:40:50;;;;;;;3.38;2.85;;;;;;;16.06;100.00;101372.44;1027784;28;20042;-80
2022/08/03 00:41:22;;;;;;;7.60;2.50;;;;;;;16.04;100.00;101375.38;1028242;28;20058;-80
2022/08/03 00:41:54;;;;;;;6.90;2.70;;;;;;;16.04;100.00;101369.19;1032719;28;20051;-80
2022/08/03 00:42:25;;;;;;;5.70;2.50;;;;;;;15.99;100.00;101366.41;1035979;28;20413;-80
2022/08/03 00:43:03;;;;;;;4.20;2.75;;;;;;;16.03;100.00;101367.56;1032307;28;20046;-80
2022/08/03 00:43:35;;;;;;;5.00;3.38;;;;;;;16.07;100.00;101368.72;1035917;28;20049;-80
2022/08/03 00:44:07;;;;;;;4.95;2.72;;;;;;;16.15;100.00;101368.31;1031954;28;20042;-80
2022/08/03 00:44:39;;;;;;;4.05;2.78;;;;;;;16.16;100.00;101371.81;1032812;28;20097;-80
2022/08/03 00:45:12;;;;;;;3.20;2.90;;;;;;;16.14;100.00;101374.75;1035796;28;20131;-80
2022/08/03 00:45:43;;;;;;;6.43;2.30;;;;;;;16.14;100.00;101364.00;1035931;28;20038;-80
2022/08/03 00:46:15;;;;;;;4.32;3.15;;;;;;;16.11;100.00;101363.66;1029505;28;20046;-80
2022/08/03 00:46:52;;;;;;;4.40;2.60;;;;;;;16.06;100.00;101367.06;1029282;28;20057;-80
2022/08/03 00:47:23;;;;;;;3.67;2.47;;;;;;;16.12;100.00;101368.81;1031759;28;20387;-80
2022/08/03 00:47:56;;;;;;;5.95;2.97;;;;;;;16.16;100.00;101372.66;1033887;28;20058;-79
2022/08/03 00:48:27;;;;;;;34.88;5.63;;;;;;;16.17;100.00;101373.47;1032296;28;20043;-80
2022/08/03 00:49:04;;;;;;;47.55;6.78;;;;;;;16.15;100.00;101375.56;1032074;28;20053;-80
2022/08/03 00:49:39;;;;;;;46.50;7.05;;;;;;;16.07;100.00;101374.09;1028354;28;20177;-79
2022/08/03 00:50:14;;;;;;;43.65;5.65;;;;;;;16.01;100.00;101377.72;1024015;28;20534;-79
2022/08/03 00:50:48;;;;;;;27.27;4.80;;;;;;;16.00;100.00;101378.78;1031370;28;20043;-80
2022/08/03 00:51:24;;;;;;;41.60;5.15;;;;;;;15.91;100.00;101374.84;1031509;28;20043;-79
2022/08/03 00:51:56;;;;;;;25.83;4.80;;;;;;;15.97;100.00;101374.72;1031653;28;20576;-79
2022/08/03 00:52:27;;;;;;;20.90;4.00;;;;;;;16.01;100.00;101375.88;1027539;28;20046;-79
2022/08/03 00:53:00;;;;;;;31.38;5.13;;;;;;;15.98;100.00;101378.22;1023920;29;20043;-79
2022/08/03 00:53:33;;;;;;;28.27;3.90;;;;;;;16.01;100.00;101375.06;1020087;29;20468;-79
2022/08/03 00:54:05;;;;;;;31.38;5.75;;;;;;;16.00;100.00;101373.41;1024211;28;20500;-79
2022/08/03 00:54:37;;;;;;;22.80;4.15;;;;;;;16.06;100.00;101375.97;1024608;28;20467;-79
2022/08/03 00:55:09;;;;;;;13.93;3.83;;;;;;;16.13;100.00;101375.81;1026227;28;20126;-79
2022/08/03 00:55:41;;;;;;;13.98;3.35;;;;;;;16.16;100.00;101372.66;1032127;28;20038;-79
2022/08/03 00:56:14;;;;;;;13.52;3.53;;;;;;;16.19;100.00;101374.88;1028508;28;20505;-79
2022/08/03 00:56:46;;;;;;;9.88;3.53;;;;;;;16.22;100.00;101384.31;1028374;28;20046;-79
2022/08/03 00:57:31;;;;;;;10.48;3.65;;;;;;;16.27;100.00;101371.78;1031642;28;20078;-79
2022/08/03 00:58:06;;;;;;;7.15;2.38;;;;;;;16.29;100.00;101377.75;1030715;28;20051;-80
2022/08/03 00:58:38;;;;;;;4.93;3.15;;;;;;;16.24;100.00;101368.78;1030970;28;20061;-80
2022/08/03 00:59:10;;;;;;;5.60;3.22;;;;;;;16.25;100.00;101375.78;1030307;28;20042;-80
2022/08/03 00:59:44;;;;;;;6.47;2.13;;;;;;;16.21;100.00;101374.63;1025733;28;20134;-81
2022/08/03 01:00:20;;;;;;;5.28;3.00;;;;;;;16.21;100.00;101375.44;1033295;28;20056;-80
2022/08/03 01:00:53;;;;;;;11.98;3.45;;;;;;;16.19;100.00;101372.19;1031687;28;20050;-80
2022/08/03 01:01:24;;;;;;;7.45;3.17;;;;;;;16.18;100.00;101365.19;1033419;28;20042;-80
2022/08/03 01:02:02;;;;;;;7.95;2.47;;;;;;;16.18;100.00;101365.19;1031577;28;20046;-80
2022/08/03 01:02:34;;;;;;;5.97;2.70;;;;;;;16.17;100.00;101362.72;1027613;28;20058;-80
2022/08/03 01:03:07;;;;;;;5.15;3.00;;;;;;;16.18;100.00;101370.56;1024075;29;20047;-80
2022/08/03 01:03:39;;;;;;;4.53;2.67;;;;;;;16.22;100.00;101370.88;1022427;28;20427;-80
2022/08/03 01:04:11;;;;;;;2.92;2.28;;;;;;;16.20;100.00;101364.94;1024431;28;20043;-80
2022/08/03 01:04:42;;;;;;;7.07;2.55;;;;;;;16.20;100.00;101362.25;1024672;28;20490;-80
2022/08/03 01:05:14;;;;;;;5.03;2.75;;;;;;;16.23;100.00;101359.88;1024082;28;20048;-80
2022/08/03 01:06:02;;;;;;;4.18;2.78;;;;;;;16.24;100.00;101364.22;1028254;28;20038;-80
2022/08/03 01:07:05;;;;;;;6.15;2.35;;;;;;;16.26;100.00;101363.97;1027943;28;20592;-80
2022/08/03 01:07:51;;;;;;;4.65;2.33;;;;;;;16.11;100.00;101364.47;1031840;28;20042;-80
2022/08/03 01:08:41;;;;;;;4.88;3.08;;;;;;;16.05;100.00;101360.88;1032850;28;20043;-80
2022/08/03 01:09:42;;;;;;;4.38;2.10;;;;;;;16.07;100.00;101363.34;1035754;28;20145;-80
2022/08/03 01:10:36;;;;;;;4.55;2.60;;;;;;;15.99;100.00;101363.72;1031405;28;20062;-80
2022/08/03 01:11:14;;;;;;;2.33;2.10;;;;;;;15.97;100.00;101369.34;1034976;28;20062;-80
2022/08/03 01:11:55;;;;;;;3.15;2.35;;;;;;;15.89;100.00;101367.03;1030348;28;20042;-80
2022/08/03 01:12:39;;;;;;;5.68;3.00;;;;;;;15.88;100.00;101364.56;1028126;28;20396;-79
2022/08/03 01:13:52;;;;;;;2.97;2.53;;;;;;;15.73;100.00;101368.59;1031948;28;20383;-79
2022/08/03 01:15:09;;;;;;;2.47;2.28;;;;;;;15.87;100.00;101368.31;1031286;28;20049;-79
2022/08/03 01:16:04;;;;;;;2.80;2.55;;;;;;;15.83;100.00;101364.47;1026389;28;20125;-79
2022/08/03 01:17:13;;;;;;;4.07;2.30;;;;;;;15.89;100.00;101363.53;1030695;28;20046;-79
2022/08/03 01:17:51;;;;;;;2.58;2.38;;;;;;;15.87;100.00;101357.56;1037320;28;20060;-79
2022/08/03 01:18:25;;;;;;;5.97;2.63;;;;;;;15.82;100.00;101360.16;1035626;28;20076;-79
2022/08/03 01:19:22;;;;;;;3.17;2.15;;;;;;;15.87;100.00;101368.31;1035970;28;20139;-79
2022/08/03 01:20:07;;;;;;;3.38;2.58;;;;;;;15.85;100.00;101356.97;1035910;28;20042;-79
2022/08/03 01:20:43;;;;;;;12.25;2.90;;;;;;;15.87;100.00;101357.56;1035432;28;20045;-79
2022/08/03 01:21:28;;;;;;;5.13;1.80;;;;;;;15.91;100.00;101356.06;1027497;28;20042;-79
2022/08/03 01:22:23;;;;;;;2.90;2.40;;;;;;;15.88;100.00;101354.63;1023566;29;20090;-79
2022/08/03 01:23:23;;;;;;;7.75;3.08;;;;;;;15.95;100.00;101349.13;1025986;28;20043;-79
2022/08/03 01:24:22;;;;;;;4.80;2.30;;;;;;;15.82;100.00;101349.41;1031710;28;20537;-79
2022/08/03 01:25:02;;;;;;;6.25;2.40;;;;;;;15.83;100.00;101353.72;1031195;28;20049;-79
2022/08/03 01:25:52;;;;;;;8.20;2.25;;;;;;;15.84;100.00;101348.09;1029120;28;20057;-79
2022/08/03 01:26:55;;;;;;;3.05;2.75;;;;;;;15.76;100.00;101346.63;1031551;28;20564;-79
2022/08/03 01:28:07;;;;;;;2.22;2.00;;;;;;;15.77;100.00;101342.88;1032432;28;20042;-79
2022/08/03 01:28:44;;;;;;;6.10;2.72;;;;;;;15.76;100.00;101341.25;1033322;28;20042;-79
2022/08/03 01:29:53;;;;;;;9.02;3.00;;;;;;;15.80;100.00;101340.78;1035714;28;20038;-79
2022/08/03 01:30:32;;;;;;;5.45;2.55;;;;;;;15.83;100.00;101341.09;1035717;28;20034;-79
2022/08/03 01:31:07;;;;;;;6.75;2.65;;;;;;;15.81;100.00;101342.41;1035744;28;20057;-79
2022/08/03 01:31:46;;;;;;;5.57;2.40;;;;;;;15.69;100.00;101345.13;1035252;28;20391;-79
2022/08/03 01:32:44;;;;;;;10.05;2.70;;;;;;;15.68;100.00;101340.81;1035799;28;20064;-79
2022/08/03 01:33:40;;;;;;;8.35;2.58;;;;;;;15.84;100.00;101339.22;1034790;28;20049;-79
2022/08/03 01:34:14;;;;;;;3.60;2.55;;;;;;;15.86;100.00;101334.44;1028470;28;20062;-79
2022/08/03 01:35:00;;;;;;;4.40;2.47;;;;;;;15.83;100.00;101340.28;1027872;28;20035;-79
2022/08/03 01:35:58;;;;;;;4.38;2.67;;;;;;;15.89;100.00;101336.66;1029916;28;20038;-79
2022/08/03 01:36:37;;;;;;;6.50;2.58;;;;;;;15.84;100.00;101333.84;1033461;28;20042;-79
2022/08/03 01:37:10;;;;;;;7.72;3.20;;;;;;;15.87;100.00;101341.44;1031581;28;20038;-79
2022/08/03 01:37:47;;;;;;;2.67;2.42;;;;;;;15.99;100.00;101342.22;1031655;28;20050;-79
2022/08/03 01:38:28;;;;;;;3.70;2.58;;;;;;;16.03;100.00;101343.38;1034017;28;20109;-79
2022/08/03 01:39:08;;;;;;;4.55;2.40;;;;;;;15.83;100.00;101341.09;1038465;28;20041;-79
2022/08/03 01:39:40;;;;;;;2.88;2.28;;;;;;;15.86;100.00;101339.81;1027935;28;20049;-79
2022/08/03 01:40:13;;;;;;;4.55;2.65;;;;;;;15.82;100.00;101344.84;1027542;28;20445;-79
2022/08/03 01:40:45;;;;;;;4.53;2.40;;;;;;;15.81;100.00;101339.72;1023723;29;20054;-79
2022/08/03 01:41:24;;;;;;;3.55;2.63;;;;;;;15.75;100.00;101339.63;1031621;28;20489;-79
2022/08/03 01:41:59;;;;;;;2.70;2.47;;;;;;;15.82;100.00;101335.97;1025903;28;20062;-79
2022/08/03 01:42:31;;;;;;;4.25;2.80;;;;;;;15.85;100.00;101335.50;1021759;29;20039;-79
2022/08/03 01:43:05;;;;;;;4.55;3.30;;;;;;;15.85;100.00;101340.88;1025484;28;20040;-79
2022/08/03 01:43:38;;;;;;;2.97;2.63;;;;;;;15.86;100.00;101339.81;1024710;28;20047;-79
2022/08/03 01:44:41;;;;;;;3.30;3.00;;;;;;;15.82;100.00;101344.03;1035678;28;20038;-79
2022/08/03 01:45:23;;;;;;;6.07;2.85;;;;;;;15.82;100.00;101335.97;1031940;28;20141;-80
2022/08/03 01:45:56;;;;;;;5.50;2.95;;;;;;;15.87;100.00;101341.44;1032124;28;20046;-80
2022/08/03 01:46:30;;;;;;;5.35;3.05;;;;;;;15.91;100.00;101337.25;1027462;28;20265;-79
2022/08/03 01:47:02;;;;;;;7.90;2.78;;;;;;;15.92;100.00;101337.00;1026254;28;20047;-80
2022/08/03 01:47:34;;;;;;;6.68;2.97;;;;;;;15.89;100.00;101333.97;1021190;29;20039;-79
2022/08/03 01:48:06;;;;;;;4.57;4.10;;;;;;;15.87;100.00;101330.69;1024231;28;20054;-80
2022/08/03 01:48:41;;;;;;;3.80;2.70;;;;;;;15.84;100.00;101341.91;1024083;28;20062;-80
2022/08/03 01:49:14;;;;;;;4.28;2.85;;;;;;;15.83;100.00;101340.28;1024351;28;20570;-80
2022/08/03 01:49:46;;;;;;;4.60;2.38;;;;;;;15.83;100.00;101337.59;1025226;28;20047;-80
2022/08/03 01:50:22;;;;;;;5.35;3.22;;;;;;;15.75;100.00;101345.00;1027107;28;20031;-80
2022/08/03 01:50:54;;;;;;;3.13;2.38;;;;;;;15.85;100.00;101335.50;1032513;28;20046;-80
2022/08/03 01:51:27;;;;;;;3.28;2.53;;;;;;;15.86;100.00;101345.19;1031524;28;20050;-80
2022/08/03 01:52:20;;;;;;;2.72;2.53;;;;;;;15.89;100.00;101336.66;1033832;28;20502;-80
2022/08/03 01:52:53;;;;;;;4.82;3.08;;;;;;;15.89;100.00;101333.97;1027471;28;20098;-80
2022/08/03 01:53:25;;;;;;;3.45;3.15;;;;;;;15.92;100.00;101342.38;1027346;28;20038;-80
2022/08/03 01:53:57;;;;;;;5.75;3.70;;;;;;;15.98;100.00;101337.91;1023737;29;20445;-80
2022/08/03 01:54:30;;;;;;;3.83;3.35;;;;;;;16.00;100.00;101342.00;1024937;28;20392;-80
2022/08/03 01:55:03;;;;;;;8.07;4.15;;;;;;;16.02;100.00;101334.50;1027470;28;20498;-80
2022/08/03 01:55:35;;;;;;;4.53;3.20;;;;;;;16.08;100.00;101343.47;1024194;28;20059;-80
2022/08/03 01:56:07;;;;;;;5.30;3.38;;;;;;;15.97;100.00;101338.97;1028706;28;20046;-80
2022/08/03 01:56:40;;;;;;;3.88;3.20;;;;;;;15.83;100.00;101332.22;1032573;28;20098;-80
2022/08/03 01:57:12;;;;;;;6.90;2.83;;;;;;;15.74;100.00;101335.31;1036073;28;20045;-79
2022/08/03 01:57:44;;;;;;;4.75;2.97;;;;;;;15.84;100.00;101336.53;1039818;28;20049;-80
2022/08/03 01:58:36;;;;;;;3.45;3.03;;;;;;;15.84;100.00;101342.72;1039565;28;20049;-80
2022/08/03 01:59:10;;;;;;;5.00;3.33;;;;;;;15.80;100.00;101336.22;1028351;28;20050;-80
2022/08/03 01:59:43;;;;;;;4.85;2.90;;;;;;;15.83;100.00;101337.59;1027266;28;20050;-80
2022/08/03 02:00:15;;;;;;;5.65;3.50;;;;;;;15.75;100.00;101338.81;1023017;29;20381;-80
2022/08/03 02:00:50;;;;;;;6.88;3.10;;;;;;;15.77;100.00;101334.81;1025214;28;20047;-80
2022/08/03 02:01:22;;;;;;;3.88;2.90;;;;;;;15.67;100.00;101337.31;1029961;28;20441;-80
2022/08/03 02:01:55;;;;;;;6.57;3.22;;;;;;;15.69;100.00;101339.75;1031026;28;20050;-80
2022/08/03 02:02:48;;;;;;;3.75;3.08;;;;;;;15.64;100.00;101334.28;1031103;28;20478;-80
2022/08/03 02:03:22;;;;;;;5.72;3.17;;;;;;;15.66;100.00;101341.06;1027734;28;20051;-80
2022/08/03 02:03:54;;;;;;;3.50;2.30;;;;;;;15.54;100.00;101332.16;1029120;28;20046;-80
2022/08/03 02:04:32;;;;;;;2.55;2.15;;;;;;;15.56;100.00;101334.59;1027412;28;20034;-80
2022/08/03 02:05:06;;;;;;;4.18;2.95;;;;;;;15.57;100.00;101330.88;1025265;28;20039;-80
2022/08/03 02:05:44;;;;;;;5.18;2.85;;;;;;;15.57;100.00;101331.69;1027189;28;20080;-80
2022/08/03 02:06:18;;;;;;;5.45;3.47;;;;;;;15.52;100.00;101334.25;1028594;28;20047;-80
2022/08/03 02:07:10;;;;;;;4.25;3.05;;;;;;;15.50;100.00;101336.38;1030478;28;20039;-79
2022/08/03 02:07:43;;;;;;;5.70;2.60;;;;;;;15.45;100.00;101333.59;1027530;28;20045;-80
2022/08/03 02:08:17;;;;;;;6.18;3.10;;;;;;;15.48;100.00;101332.28;1031397;28;20046;-80
2022/08/03 02:08:50;;;;;;;9.23;3.00;;;;;;;15.38;100.00;101332.91;1027411;28;20047;-80
2022/08/03 02:09:22;;;;;;;7.10;2.42;;;;;;;15.42;100.00;101336.75;1024212;28;20070;-80
2022/08/03 02:09:54;;;;;;;3.90;3.00;;;;;;;15.45;100.00;101338.97;1028245;28;20058;-80
2022/08/03 02:10:26;;;;;;;4.53;3.35;;;;;;;15.47;100.00;101336.84;1029264;28;20050;-80
2022/08/03 02:11:06;;;;;;;2.72;2.53;;;;;;;15.41;100.00;101335.94;1033423;28;20470;-80
2022/08/03 02:11:39;;;;;;;14.82;4.57;;;;;;;15.36;100.00;101335.84;1035678;28;20041;-82
2022/08/03 02:12:13;;;;;;;3.97;3.13;;;;;;;15.43;100.00;101333.00;1029071;28;20430;-79
2022/08/03 02:12:46;;;;;;;7.47;3.10;;;;;;;15.45;100.00;101325.53;1025697;28;20047;-80
2022/08/03 02:13:23;;;;;;;4.32;3.10;;;;;;;15.51;100.00;101338.00;1021315;29;20125;-80
2022/08/03 02:13:57;;;;;;;4.65;3.10;;;;;;;15.55;100.00;101331.09;1023176;28;20044;-80
2022/08/03 02:14:30;;;;;;;11.85;3.10;;;;;;;15.52;100.00;101323.53;1025373;28;20054;-80
2022/08/03 02:15:02;;;;;;;4.15;3.10;;;;;;;15.49;100.00;101334.75;1022229;28;20047;-80
2022/08/03 02:15:36;;;;;;;3.13;2.80;;;;;;;15.46;100.00;101336.03;1028740;28;20094;-80
2022/08/03 02:16:08;;;;;;;3.63;2.85;;;;;;;15.43;100.00;101331.16;1024635;28;20050;-79
2022/08/03 02:16:39;;;;;;;11.75;2.45;;;;;;;15.41;100.00;101329.75;1027429;28;20039;-80
2022/08/03 02:17:11;;;;;;;6.25;2.55;;;;;;;15.40;100.00;101336.16;1027820;28;20054;-80
2022/08/03 02:17:44;;;;;;;2.50;2.30;;;;;;;15.37;100.00;101332.09;1024402;28;20043;-80
2022/08/03 02:18:17;;;;;;;7.15;2.55;;;;;;;15.38;100.00;101333.72;1031011;28;20049;-80
2022/08/03 02:18:49;;;;;;;7.22;3.40;;;;;;;15.42;100.00;101334.06;1027093;28;20059;-80
2022/08/03 02:19:21;;;;;;;3.50;2.80;;;;;;;15.45;100.00;101333.59;1024397;28;20047;-80
2022/08/03 02:19:55;;;;;;;5.53;2.70;;;;;;;15.35;100.00;101330.69;1028078;28;20425;-79
2022/08/03 02:20:27;;;;;;;3.10;2.70;;;;;;;15.36;100.00;101329.66;1028066;28;20058;-80
2022/08/03 02:21:00;;;;;;;3.05;2.72;;;;;;;15.43;100.00;101328.47;1027904;28;20354;-80
2022/08/03 02:21:42;;;;;;;5.47;2.85;;;;;;;15.50;100.00;101333.69;1023040;29;20047;-79
2022/08/03 02:22:32;;;;;;;3.15;2.70;;;;;;;15.56;100.00;101335.41;1023908;28;20043;-79
2022/08/03 02:23:05;;;;;;;4.90;3.13;;;;;;;15.55;100.00;101333.78;1021609;28;20051;-79
2022/08/03 02:23:37;;;;;;;4.70;2.85;;;;;;;15.59;100.00;101334.16;1021492;29;20043;-80
2022/08/03 02:24:09;;;;;;;4.32;3.17;;;;;;;15.58;100.00;101335.19;1023260;29;20094;-79
2022/08/03 02:24:41;;;;;;;4.55;3.42;;;;;;;15.60;100.00;101328.56;1027442;28;20053;-79
2022/08/03 02:25:19;;;;;;;4.47;3.00;;;;;;;15.59;100.00;101329.59;1028860;28;20046;-79
2022/08/03 02:25:57;;;;;;;3.42;3.22;;;;;;;15.65;100.00;101334.06;1031195;28;20095;-79
2022/08/03 02:26:34;;;;;;;5.82;3.05;;;;;;;15.70;100.00;101336.84;1018865;29;20052;-79
2022/08/03 02:27:12;;;;;;;6.47;3.50;;;;;;;15.72;100.00;101332.03;1022521;29;20054;-79
2022/08/03 02:28:07;;;;;;;5.28;3.22;;;;;;;15.79;100.00;101339.13;1019257;29;20047;-80
2022/08/03 02:28:42;;;;;;;5.47;2.58;;;;;;;15.70;100.00;101331.47;1027166;28;20051;-79
2022/08/03 02:29:19;;;;;;;4.35;3.17;;;;;;;15.67;100.00;101336.50;1027122;28;20510;-80
2022/08/03 02:30:13;;;;;;;5.93;2.60;;;;;;;15.63;100.00;101336.16;1035359;28;20064;-79
2022/08/03 02:30:47;;;;;;;4.75;3.40;;;;;;;15.58;100.00;101333.34;1027420;28;20673;-80
2022/08/03 02:31:28;;;;;;;3.28;2.55;;;;;;;15.57;100.00;101342.41;1027583;28;20039;-79
2022/08/03 02:32:03;;;;;;;5.13;2.95;;;;;;;15.48;100.00;101327.75;1026961;28;20050;-80
2022/08/03 02:32:38;;;;;;;4.63;2.90;;;;;;;15.43;100.00;101335.69;1027144;28;20448;-79
2022/08/03 02:33:31;;;;;;;6.28;2.92;;;;;;;15.35;100.00;101331.50;1017213;29;20059;-81
2022/08/03 02:34:07;;;;;;;4.25;2.88;;;;;;;15.27;100.00;101337.22;1023629;29;20514;-79
2022/08/03 02:34:41;;;;;;;6.80;3.10;;;;;;;15.26;100.00;101340.13;1023917;28;20058;-79
2022/08/03 02:35:14;;;;;;;6.47;2.80;;;;;;;15.15;100.00;101337.25;1026476;28;20053;-79
2022/08/03 02:35:46;;;;;;;5.28;2.55;;;;;;;15.12;100.00;101335.03;1028955;28;20038;-79
2022/08/03 02:36:24;;;;;;;5.35;2.40;;;;;;;15.00;100.00;101336.88;1027563;28;20054;-79
2022/08/03 02:36:59;;;;;;;5.35;2.05;;;;;;;14.95;100.00;101333.28;1028987;28;20042;-81
2022/08/03 02:37:33;;;;;;;6.72;2.58;;;;;;;14.95;100.00;101328.72;1025091;28;20043;-81
2022/08/03 02:38:07;;;;;;;4.32;2.72;;;;;;;14.98;100.00;101328.25;1025459;28;20050;-81
2022/08/03 02:38:41;;;;;;;3.90;2.58;;;;;;;14.95;100.00;101328.72;1023031;29;20107;-81
2022/08/03 02:39:16;;;;;;;4.85;2.50;;;;;;;15.01;100.00;101335.84;1019650;28;20043;-81
2022/08/03 02:39:48;;;;;;;2.80;2.58;;;;;;;15.06;100.00;101330.56;1019325;29;20543;-81
2022/08/03 02:40:20;;;;;;;4.75;2.65;;;;;;;14.99;100.00;101332.56;1020515;29;20040;-81
2022/08/03 02:40:54;;;;;;;5.22;3.28;;;;;;;15.01;100.00;101335.84;1020785;28;20389;-81
2022/08/03 02:41:30;;;;;;;5.55;2.28;;;;;;;14.98;100.00;101328.25;1024289;28;20042;-81
2022/08/03 02:42:07;;;;;;;3.80;2.35;;;;;;;14.98;100.00;101322.88;1023762;28;20066;-81
2022/08/03 02:42:40;;;;;;;3.72;2.13;;;;;;;15.00;100.00;101326.16;1025665;28;20134;-81
2022/08/03 02:43:17;;;;;;;4.55;2.83;;;;;;;15.08;100.00;101327.69;1027269;28;20050;-81
2022/08/03 02:43:52;;;;;;;3.95;3.58;;;;;;;14.94;100.00;101328.94;1025354;28;20062;-81
2022/08/03 02:44:38;;;;;;;2.60;2.40;;;;;;;15.05;100.00;101330.81;1027348;28;20042;-81
2022/08/03 02:45:14;;;;;;;4.95;2.75;;;;;;;14.99;100.00;101327.19;1023355;29;20039;-81
2022/08/03 02:45:48;;;;;;;5.93;2.58;;;;;;;15.01;100.00;101325.09;1026360;28;20090;-81
2022/08/03 02:46:30;;;;;;;4.18;3.28;;;;;;;15.01;100.00;101322.41;1026360;28;20136;-81
2022/08/03 02:47:04;;;;;;;8.75;2.60;;;;;;;15.03;100.00;101325.69;1026368;28;20047;-81
2022/08/03 02:47:36;;;;;;;7.95;3.38;;;;;;;15.01;100.00;101325.09;1026338;28;20046;-81
2022/08/03 02:48:28;;;;;;;3.63;2.60;;;;;;;14.99;100.00;101331.75;1027374;28;20089;-81
2022/08/03 02:49:01;;;;;;;3.63;2.22;;;;;;;15.01;100.00;101322.41;1028323;28;20047;-81
2022/08/03 02:49:53;;;;;;;2.88;2.67;;;;;;;15.08;100.00;101325.81;1029520;28;20066;-81